createdAt,value
2018-12-13T00:00:39.215Z,100.00
2018-12-13T00:03:06.665Z,100.00
2018-12-13T00:05:34.133Z,100.00
2018-12-13T00:08:01.578Z,100.00
2018-12-13T00:10:29.046Z,100.00
2018-12-13T00:12:56.490Z,100.00
2018-12-13T00:15:26.034Z,100.00
2018-12-13T00:17:53.481Z,100.00
2018-12-13T00:20:20.929Z,100.00
2018-12-13T00:22:48.396Z,100.00
2018-12-13T00:25:15.850Z,100.00
2018-12-13T00:27:43.309Z,100.00
2018-12-13T00:30:10.758Z,100.00
2018-12-13T00:32:38.219Z,100.00
2018-12-13T00:35:05.672Z,100.00
2018-12-13T00:37:33.129Z,100.00
2018-12-13T00:40:00.584Z,100.00
2018-12-13T00:42:28.067Z,100.00
2018-12-13T00:44:55.617Z,100.00
2018-12-13T00:47:23.077Z,100.00
2018-12-13T00:49:50.528Z,100.00
2018-12-13T00:52:18.477Z,100.00
2018-12-13T00:54:45.931Z,100.00
2018-12-13T00:57:13.391Z,100.00
2018-12-13T00:59:40.843Z,100.00
2018-12-13T01:02:08.313Z,100.00
2018-12-13T01:04:35.778Z,100.00
2018-12-13T01:07:03.237Z,100.00
2018-12-13T01:09:30.709Z,100.00
2018-12-13T01:11:58.154Z,100.00
2018-12-13T01:14:25.631Z,100.00
2018-12-13T01:16:53.077Z,100.00
2018-12-13T01:19:20.544Z,100.00
2018-12-13T01:21:48.006Z,100.00
2018-12-13T01:24:15.482Z,100.00
2018-12-13T01:26:42.938Z,100.00
2018-12-13T01:29:10.409Z,100.00
2018-12-13T01:31:37.861Z,100.00
2018-12-13T01:34:05.324Z,100.00
2018-12-13T01:36:32.769Z,100.00
2018-12-13T01:39:00.224Z,100.00
2018-12-13T01:41:27.679Z,100.00
2018-12-13T01:43:55.158Z,100.00
2018-12-13T01:46:22.601Z,100.00
2018-12-13T01:48:50.061Z,100.00
2018-12-13T01:51:17.524Z,100.00
2018-12-13T01:53:44.973Z,100.00
2018-12-13T01:56:12.441Z,100.00
2018-12-13T01:58:39.886Z,100.00
2018-12-13T02:01:07.360Z,100.00
2018-12-13T02:03:34.817Z,100.00
2018-12-13T02:06:02.291Z,100.00
2018-12-13T02:08:29.736Z,100.00
2018-12-13T02:10:57.194Z,100.00
2018-12-13T02:13:24.745Z,100.00
2018-12-13T02:15:52.302Z,100.00
2018-12-13T02:18:19.753Z,100.00
2018-12-13T02:20:47.235Z,100.00
2018-12-13T02:23:14.688Z,100.00
2018-12-13T02:25:42.270Z,100.00
2018-12-13T02:28:09.733Z,100.00
2018-12-13T02:30:37.195Z,100.00
2018-12-13T02:33:04.650Z,100.00
2018-12-13T02:35:32.137Z,100.00
2018-12-13T02:37:59.598Z,100.00
2018-12-13T02:40:27.165Z,100.00
2018-12-13T02:42:54.610Z,100.00
2018-12-13T02:45:22.066Z,100.00
2018-12-13T02:47:49.514Z,100.00
2018-12-13T02:50:16.971Z,100.00
2018-12-13T02:52:44.443Z,100.00
2018-12-13T02:55:11.894Z,100.00
2018-12-13T02:57:39.676Z,100.00
2018-12-13T03:00:07.125Z,100.00
2018-12-13T03:02:34.594Z,100.00
2018-12-13T03:05:02.033Z,100.00
2018-12-13T03:07:29.494Z,100.00
2018-12-13T03:09:56.949Z,100.00
2018-12-13T03:12:24.413Z,100.00
2018-12-13T03:14:51.873Z,100.00
2018-12-13T03:17:19.337Z,100.00
2018-12-13T03:19:46.781Z,100.00
2018-12-13T03:22:14.247Z,100.00
2018-12-13T03:24:41.698Z,100.00
2018-12-13T03:27:09.158Z,100.00
2018-12-13T03:29:37.643Z,100.00
2018-12-13T03:32:05.115Z,100.00
2018-12-13T03:34:32.679Z,100.00
2018-12-13T03:37:00.210Z,100.00
2018-12-13T03:39:27.687Z,100.00
2018-12-13T03:41:55.140Z,100.00
2018-12-13T03:44:22.623Z,100.00
2018-12-13T03:46:50.069Z,100.00
2018-12-13T03:49:17.539Z,100.00
2018-12-13T03:51:44.990Z,100.00
2018-12-13T03:54:12.459Z,100.00
2018-12-13T03:56:40.413Z,100.00
2018-12-13T03:59:07.877Z,100.00
2018-12-13T04:01:35.321Z,100.00
2018-12-13T04:04:02.784Z,100.00
2018-12-13T04:06:30.242Z,100.00
2018-12-13T04:08:57.716Z,100.00
2018-12-13T04:11:25.173Z,100.00
2018-12-13T04:13:52.637Z,100.00
2018-12-13T04:16:20.080Z,100.00
2018-12-13T04:18:47.564Z,100.00
2018-12-13T04:21:15.122Z,100.00
2018-12-13T04:23:42.565Z,100.00
2018-12-13T04:26:10.048Z,100.00
2018-12-13T04:28:37.516Z,100.00
2018-12-13T04:31:04.991Z,100.00
2018-12-13T04:33:32.438Z,100.00
2018-12-13T04:35:59.913Z,100.00
2018-12-13T04:38:27.361Z,98.29
2018-12-13T04:40:54.828Z,92.04
2018-12-13T04:43:22.281Z,90.77
2018-12-13T04:45:49.742Z,100.00
2018-12-13T04:48:17.202Z,100.00
2018-12-13T04:50:45.389Z,100.00
2018-12-13T04:53:12.843Z,100.00
2018-12-13T04:55:40.296Z,100.00
2018-12-13T04:58:07.746Z,100.00
2018-12-13T05:00:35.220Z,100.00
2018-12-13T05:03:02.690Z,100.00
2018-12-13T05:05:30.153Z,100.00
2018-12-13T05:07:57.601Z,100.00
2018-12-13T05:10:36.825Z,100.00
2018-12-13T05:13:04.275Z,100.00
2018-12-13T05:15:31.727Z,100.00
2018-12-13T05:17:59.205Z,100.00
2018-12-13T05:20:26.657Z,100.00
2018-12-13T05:22:54.135Z,100.00
2018-12-13T05:25:21.577Z,100.00
2018-12-13T05:27:49.047Z,100.00
2018-12-13T05:30:16.601Z,100.00
2018-12-13T05:32:44.065Z,100.00
2018-12-13T05:35:11.528Z,100.00
2018-12-13T05:37:38.990Z,100.00
2018-12-13T05:40:06.440Z,100.00
2018-12-13T05:42:33.910Z,100.00
2018-12-13T05:45:01.362Z,100.00
2018-12-13T05:47:28.820Z,100.00
2018-12-13T05:49:56.274Z,100.00
2018-12-13T05:52:23.750Z,100.00
2018-12-13T05:54:51.195Z,100.00
2018-12-13T05:57:18.644Z,100.00
2018-12-13T05:59:46.117Z,100.00
2018-12-13T06:02:13.567Z,100.00
2018-12-13T06:04:41.026Z,100.00
2018-12-13T06:07:08.473Z,100.00
2018-12-13T06:09:36.007Z,100.00
2018-12-13T06:12:03.457Z,100.00
2018-12-13T06:14:30.930Z,100.00
2018-12-13T06:16:58.474Z,100.00
2018-12-13T06:19:26.778Z,100.00
2018-12-13T06:21:54.497Z,100.00
2018-12-13T06:24:21.956Z,100.00
2018-12-13T06:26:49.434Z,100.00
2018-12-13T06:29:16.902Z,100.00
2018-12-13T06:31:44.346Z,100.00
2018-12-13T06:34:11.800Z,100.00
2018-12-13T06:36:39.254Z,100.00
2018-12-13T06:39:07.595Z,100.00
2018-12-13T06:41:35.209Z,100.00
2018-12-13T06:44:02.665Z,100.00
2018-12-13T06:46:30.118Z,100.00
2018-12-13T06:48:57.554Z,100.00
2018-12-13T06:51:25.237Z,100.00
2018-12-13T06:53:52.691Z,100.00
2018-12-13T06:56:20.189Z,98.02
2018-12-13T06:58:47.653Z,99.91
2018-12-13T07:01:15.121Z,99.43
2018-12-13T07:03:42.569Z,97.69
2018-12-13T07:06:10.041Z,98.51
2018-12-13T07:08:37.567Z,99.27
2018-12-13T07:11:05.106Z,98.75
2018-12-13T07:13:32.558Z,100.00
2018-12-13T07:16:00.037Z,95.98
2018-12-13T07:18:27.479Z,97.14
2018-12-13T07:20:54.925Z,97.74
2018-12-13T07:23:22.375Z,98.20
2018-12-13T07:25:49.841Z,97.58
2018-12-13T07:28:17.284Z,94.96
2018-12-13T07:30:44.738Z,97.04
2018-12-13T07:33:12.189Z,96.40
2018-12-13T07:35:39.638Z,96.75
2018-12-13T07:38:07.095Z,96.25
2018-12-13T07:40:34.549Z,97.62
2018-12-13T07:43:02.017Z,99.65
2018-12-13T07:45:29.473Z,98.27
2018-12-13T07:47:56.933Z,96.20
2018-12-13T07:50:24.380Z,94.62
2018-12-13T07:52:51.853Z,99.19
2018-12-13T07:55:19.301Z,98.20
2018-12-13T07:57:46.865Z,96.29
2018-12-13T08:00:14.308Z,98.44
2018-12-13T08:02:41.759Z,97.98
2018-12-13T08:05:09.211Z,98.58
2018-12-13T08:07:36.665Z,98.17
2018-12-13T08:10:04.985Z,98.73
2018-12-13T08:12:32.448Z,98.95
2018-12-13T08:14:59.898Z,99.43
2018-12-13T08:17:27.358Z,98.16
2018-12-13T08:19:54.817Z,97.67
2018-12-13T08:22:22.265Z,98.20
2018-12-13T08:24:49.737Z,96.46
2018-12-13T08:27:17.175Z,97.73
2018-12-13T08:29:44.643Z,97.90
2018-12-13T08:32:12.108Z,98.69
2018-12-13T08:34:39.574Z,98.85
2018-12-13T08:37:07.014Z,100.00
2018-12-13T08:39:34.480Z,99.37
2018-12-13T08:42:01.929Z,96.83
2018-12-13T08:44:29.389Z,97.92
2018-12-13T08:46:56.833Z,97.67
2018-12-13T08:49:24.306Z,98.27
2018-12-13T08:51:51.755Z,98.51
2018-12-13T08:54:19.218Z,96.41
2018-12-13T08:56:46.661Z,98.54
2018-12-13T08:59:14.122Z,99.24
2018-12-13T09:01:41.703Z,98.01
2018-12-13T09:04:09.160Z,98.48
2018-12-13T09:06:36.832Z,96.47
2018-12-13T09:09:07.135Z,95.86
2018-12-13T09:11:34.577Z,94.70
2018-12-13T09:14:02.304Z,95.82
2018-12-13T09:16:31.674Z,95.75
2018-12-13T09:18:59.220Z,95.41
2018-12-13T09:21:26.693Z,95.49
2018-12-13T09:23:54.130Z,95.55
2018-12-13T09:26:21.581Z,95.09
2018-12-13T09:28:49.043Z,95.56
2018-12-13T09:31:16.588Z,93.79
2018-12-13T09:33:44.022Z,92.52
2018-12-13T09:36:11.474Z,93.63
2018-12-13T09:38:39.973Z,94.28
2018-12-13T09:41:07.698Z,93.87
2018-12-13T09:43:35.136Z,93.56
2018-12-13T09:46:02.591Z,95.08
2018-12-13T09:48:30.033Z,94.69
2018-12-13T09:50:57.502Z,93.31
2018-12-13T09:53:24.977Z,93.57
2018-12-13T09:55:52.437Z,89.84
2018-12-13T09:58:19.883Z,95.22
2018-12-13T10:00:47.358Z,95.70
2018-12-13T10:03:14.796Z,97.39
2018-12-13T10:05:42.246Z,96.55
2018-12-13T10:08:09.711Z,95.98
2018-12-13T10:10:37.174Z,95.82
2018-12-13T10:13:04.642Z,96.64
2018-12-13T10:15:32.435Z,97.01
2018-12-13T10:18:00.324Z,99.93
2018-12-13T10:20:27.766Z,96.37
2018-12-13T10:22:55.222Z,94.83
2018-12-13T10:25:22.666Z,94.10
2018-12-13T10:27:50.111Z,95.77
2018-12-13T10:30:17.571Z,93.63
2018-12-13T10:32:45.019Z,93.91
2018-12-13T10:35:12.554Z,93.70
2018-12-13T10:37:39.997Z,94.24
2018-12-13T10:40:07.544Z,92.85
2018-12-13T10:42:34.991Z,93.71
2018-12-13T10:45:02.457Z,94.42
2018-12-13T10:47:29.906Z,95.17
2018-12-13T10:49:57.369Z,93.89
2018-12-13T10:52:24.826Z,92.92
2018-12-13T10:54:52.295Z,93.81
2018-12-13T10:57:19.750Z,94.29
2018-12-13T10:59:47.219Z,96.67
2018-12-13T11:02:20.192Z,94.16
2018-12-13T11:04:47.659Z,94.82
2018-12-13T11:07:16.081Z,94.32
2018-12-13T11:09:43.539Z,93.35
2018-12-13T11:12:10.982Z,92.14
2018-12-13T11:14:38.416Z,92.23
2018-12-13T11:17:05.872Z,95.84
2018-12-13T11:19:33.326Z,91.91
2018-12-13T11:22:00.790Z,95.29
2018-12-13T11:24:28.229Z,95.04
2018-12-13T11:26:59.652Z,93.17
2018-12-13T11:29:38.851Z,94.13
2018-12-13T11:32:06.313Z,93.31
2018-12-13T11:34:33.759Z,92.70
2018-12-13T11:37:01.252Z,89.52
2018-12-13T11:39:28.712Z,91.90
2018-12-13T11:41:56.170Z,93.02
2018-12-13T11:44:23.618Z,90.04
2018-12-13T11:46:51.089Z,88.93
2018-12-13T11:49:18.531Z,91.06
2018-12-13T11:51:45.985Z,91.07
2018-12-13T11:54:16.985Z,89.68
2018-12-13T11:56:44.821Z,89.71
2018-12-13T11:59:12.272Z,87.00
2018-12-13T12:01:39.726Z,84.49
2018-12-13T12:04:07.178Z,82.29
2018-12-13T12:06:34.632Z,73.85
2018-12-13T12:09:02.101Z,66.96
2018-12-13T12:11:29.545Z,68.98
2018-12-13T12:13:57.009Z,70.37
2018-12-13T12:16:24.452Z,67.63
2018-12-13T12:18:51.905Z,66.18
2018-12-13T12:21:19.817Z,66.99
2018-12-13T12:23:47.732Z,68.54
2018-12-13T12:26:15.161Z,66.37
2018-12-13T12:28:42.650Z,66.54
2018-12-13T12:31:10.101Z,63.64
2018-12-13T12:33:37.577Z,59.47
2018-12-13T12:36:05.038Z,60.61
2018-12-13T12:38:32.489Z,59.52
2018-12-13T12:40:59.953Z,63.11
2018-12-13T12:43:27.402Z,59.64
2018-12-13T12:45:54.859Z,63.35
2018-12-13T12:48:22.310Z,64.10
2018-12-13T12:50:49.771Z,65.27
2018-12-13T12:53:17.243Z,65.01
2018-12-13T12:55:44.701Z,60.36
2018-12-13T12:58:12.146Z,60.47
2018-12-13T13:00:39.617Z,62.87
2018-12-13T13:03:07.067Z,64.31
2018-12-13T13:05:34.525Z,64.68
2018-12-13T13:08:01.976Z,57.42
2018-12-13T13:10:29.442Z,61.00
2018-12-13T13:12:57.611Z,60.25
2018-12-13T13:15:25.060Z,61.53
2018-12-13T13:17:52.508Z,64.54
2018-12-13T13:20:19.978Z,57.30
2018-12-13T13:22:47.435Z,60.71
2018-12-13T13:25:14.882Z,65.12
2018-12-13T13:27:42.344Z,68.21
2018-12-13T13:30:09.870Z,73.56
2018-12-13T13:32:37.342Z,77.82
2018-12-13T13:35:04.786Z,79.47
2018-12-13T13:37:32.246Z,82.10
2018-12-13T13:39:59.681Z,80.81
2018-12-13T13:42:27.195Z,85.16
2018-12-13T13:44:56.626Z,85.66
2018-12-13T13:47:24.090Z,86.40
2018-12-13T13:49:51.545Z,90.09
2018-12-13T13:52:19.002Z,89.65
2018-12-13T13:54:46.451Z,88.60
2018-12-13T13:57:13.924Z,92.57
2018-12-13T13:59:41.397Z,91.44
2018-12-13T14:02:08.859Z,89.89
2018-12-13T14:04:36.313Z,93.42
2018-12-13T14:07:03.789Z,90.53
2018-12-13T14:09:37.638Z,88.25
2018-12-13T14:12:00.717Z,87.62
2018-12-13T14:14:28.161Z,83.75
2018-12-13T14:16:55.609Z,85.44
2018-12-13T14:19:23.106Z,84.05
2018-12-13T14:21:50.562Z,82.19
2018-12-13T14:24:18.026Z,80.14
2018-12-13T14:26:45.468Z,86.11
2018-12-13T14:29:12.951Z,86.73
2018-12-13T14:31:40.386Z,86.51
2018-12-13T14:34:07.847Z,90.74
2018-12-13T14:36:35.318Z,88.99
2018-12-13T14:39:05.034Z,89.08
2018-12-13T14:41:32.466Z,87.81
2018-12-13T14:43:59.910Z,90.07
2018-12-13T14:46:27.367Z,91.13
2018-12-13T14:48:54.818Z,91.44
2018-12-13T14:51:22.311Z,94.25
2018-12-13T14:53:49.791Z,92.67
2018-12-13T14:56:17.259Z,94.45
2018-12-13T14:58:44.790Z,96.32
2018-12-13T15:01:12.274Z,96.91
2018-12-13T15:03:39.718Z,94.96
2018-12-13T15:06:07.174Z,95.93
2018-12-13T15:08:34.621Z,96.65
2018-12-13T15:11:02.071Z,96.20
2018-12-13T15:13:29.544Z,97.44
2018-12-13T15:15:56.977Z,98.44
2018-12-13T15:18:24.445Z,98.71
2018-12-13T15:20:51.914Z,98.42
2018-12-13T15:23:19.479Z,96.72
2018-12-13T15:25:46.925Z,96.75
2018-12-13T15:28:14.380Z,96.94
2018-12-13T15:30:41.843Z,99.53
2018-12-13T15:33:09.309Z,99.86
2018-12-13T15:35:36.762Z,97.81
2018-12-13T15:38:04.282Z,97.63
2018-12-13T15:40:31.741Z,97.64
2018-12-13T15:42:59.198Z,97.66
2018-12-13T15:45:27.126Z,97.10
2018-12-13T15:47:54.596Z,96.71
2018-12-13T15:50:22.046Z,97.07
2018-12-13T15:52:49.496Z,99.21
2018-12-13T15:55:16.970Z,97.91
2018-12-13T15:57:44.418Z,97.51
2018-12-13T16:00:11.877Z,97.71
2018-12-13T16:02:39.427Z,97.81
2018-12-13T16:05:06.967Z,96.98
2018-12-13T16:07:34.431Z,95.79
2018-12-13T16:10:03.961Z,95.74
2018-12-13T16:12:31.469Z,97.37
2018-12-13T16:14:59.040Z,96.08
2018-12-13T16:17:26.492Z,96.10
2018-12-13T16:19:53.954Z,96.26
2018-12-13T16:22:21.568Z,97.18
2018-12-13T16:24:49.199Z,96.98
2018-12-13T16:27:16.718Z,95.49
2018-12-13T16:29:44.182Z,95.34
2018-12-13T16:32:11.653Z,96.50
2018-12-13T16:34:39.118Z,96.92
2018-12-13T16:37:06.561Z,97.99
2018-12-13T16:39:34.002Z,98.72
2018-12-13T16:42:01.502Z,98.16
2018-12-13T16:44:28.975Z,98.87
2018-12-13T16:46:56.450Z,97.97
2018-12-13T16:49:23.896Z,98.65
2018-12-13T16:51:51.357Z,98.60
2018-12-13T16:54:18.800Z,100.00
2018-12-13T16:56:46.261Z,99.04
2018-12-13T16:59:13.712Z,100.00
2018-12-13T17:01:41.175Z,100.00
2018-12-13T17:04:08.625Z,99.59
2018-12-13T17:06:36.088Z,100.00
2018-12-13T17:09:04.898Z,100.00
2018-12-13T17:11:32.366Z,100.00
2018-12-13T17:13:59.823Z,100.00
2018-12-13T17:16:27.265Z,100.00
2018-12-13T17:18:54.719Z,100.00
2018-12-13T17:21:22.173Z,100.00
2018-12-13T17:23:49.631Z,100.00
2018-12-13T17:26:17.078Z,100.00
2018-12-13T17:28:44.749Z,100.00
2018-12-13T17:31:12.188Z,100.00
2018-12-13T17:33:39.651Z,100.00
2018-12-13T17:36:07.110Z,100.00
2018-12-13T17:38:34.572Z,100.00
2018-12-13T17:41:02.024Z,100.00
2018-12-13T17:43:29.478Z,100.00
2018-12-13T17:45:56.917Z,100.00
2018-12-13T17:48:24.382Z,100.00
2018-12-13T17:50:51.828Z,100.00
2018-12-13T17:53:19.769Z,100.00
2018-12-13T17:55:47.227Z,100.00
2018-12-13T17:58:14.710Z,100.00
2018-12-13T18:00:42.166Z,100.00
2018-12-13T18:03:09.892Z,100.00
2018-12-13T18:05:37.499Z,100.00
2018-12-13T18:08:04.940Z,100.00
2018-12-13T18:10:32.400Z,100.00
2018-12-13T18:12:59.833Z,100.00
2018-12-13T18:15:27.330Z,100.00
2018-12-13T18:17:54.853Z,100.00
2018-12-13T18:20:22.322Z,100.00
2018-12-13T18:22:49.781Z,100.00
2018-12-13T18:25:17.271Z,100.00
2018-12-13T18:27:44.726Z,100.00
2018-12-13T18:30:12.178Z,100.00
2018-12-13T18:32:39.630Z,100.00
2018-12-13T18:35:07.099Z,100.00
2018-12-13T18:37:34.533Z,100.00
2018-12-13T18:40:02.003Z,100.00
2018-12-13T18:42:29.461Z,100.00
2018-12-13T18:44:56.925Z,100.00
2018-12-13T18:47:24.373Z,100.00
2018-12-13T18:49:51.827Z,100.00
2018-12-13T18:52:19.328Z,100.00
2018-12-13T18:54:46.767Z,100.00
2018-12-13T18:57:14.225Z,100.00
2018-12-13T18:59:41.670Z,100.00
2018-12-13T19:02:09.151Z,100.00
2018-12-13T19:04:36.593Z,100.00
2018-12-13T19:07:04.052Z,100.00
2018-12-13T19:09:31.767Z,100.00
2018-12-13T19:11:59.229Z,100.00
2018-12-13T19:14:26.683Z,100.00
2018-12-13T19:16:54.170Z,100.00
2018-12-13T19:19:21.615Z,100.00
2018-12-13T19:21:49.082Z,100.00
2018-12-13T19:24:16.548Z,100.00
2018-12-13T19:26:44.040Z,100.00
2018-12-13T19:29:11.481Z,100.00
2018-12-13T19:31:38.949Z,100.00
2018-12-13T19:34:06.400Z,100.00
2018-12-13T19:36:33.890Z,100.00
2018-12-13T19:39:01.349Z,100.00
2018-12-13T19:41:28.847Z,100.00
2018-12-13T19:43:56.319Z,100.00
2018-12-13T19:46:23.770Z,100.00
2018-12-13T19:48:51.246Z,100.00
2018-12-13T19:51:18.690Z,100.00
2018-12-13T19:53:46.158Z,100.00
2018-12-13T19:56:14.027Z,100.00
2018-12-13T19:58:41.570Z,100.00
2018-12-13T20:01:09.017Z,100.00
2018-12-13T20:03:36.587Z,100.00
2018-12-13T20:06:04.129Z,100.00
2018-12-13T20:08:31.593Z,100.00
2018-12-13T20:10:59.052Z,100.00
2018-12-13T20:13:26.510Z,100.00
2018-12-13T20:15:53.967Z,100.00
2018-12-13T20:18:21.444Z,100.00
2018-12-13T20:20:48.896Z,100.00
2018-12-13T20:23:16.369Z,100.00
2018-12-13T20:25:43.821Z,100.00
2018-12-13T20:28:11.361Z,100.00
2018-12-13T20:30:38.826Z,100.00
2018-12-13T20:33:06.285Z,100.00
2018-12-13T20:35:33.745Z,100.00
2018-12-13T20:38:01.197Z,100.00
2018-12-13T20:40:28.662Z,100.00
2018-12-13T20:42:56.141Z,100.00
2018-12-13T20:45:23.610Z,100.00
2018-12-13T20:47:51.056Z,100.00
2018-12-13T20:50:18.524Z,100.00
2018-12-13T20:52:45.979Z,100.00
2018-12-13T20:55:13.457Z,100.00
2018-12-13T20:57:40.926Z,100.00
2018-12-13T21:00:09.385Z,100.00
2018-12-13T21:02:36.869Z,100.00
2018-12-13T21:05:04.995Z,100.00
2018-12-13T21:07:33.769Z,100.00
2018-12-13T21:10:01.555Z,100.00
2018-12-13T21:12:29.155Z,100.00
2018-12-13T21:14:56.667Z,100.00
2018-12-13T21:17:24.173Z,100.00
2018-12-13T21:19:52.180Z,100.00
2018-12-13T21:22:19.642Z,100.00
2018-12-13T21:24:47.111Z,100.00
2018-12-13T21:27:14.589Z,100.00
2018-12-13T21:29:42.078Z,100.00
2018-12-13T21:32:09.578Z,100.00
2018-12-13T21:34:37.012Z,100.00
2018-12-13T21:37:04.460Z,100.00
2018-12-13T21:39:31.962Z,100.00
2018-12-13T21:41:59.416Z,100.00
2018-12-13T21:44:26.843Z,100.00
2018-12-13T21:46:54.315Z,100.00
2018-12-13T21:49:21.747Z,100.00
2018-12-13T21:51:49.197Z,100.00
2018-12-13T21:54:16.631Z,100.00
2018-12-13T21:56:44.674Z,100.00
2018-12-13T21:59:12.126Z,100.00
2018-12-13T22:01:39.583Z,100.00
2018-12-13T22:04:07.038Z,100.00
2018-12-13T22:06:34.491Z,100.00
2018-12-13T22:09:01.990Z,100.00
2018-12-13T22:11:29.535Z,100.00
2018-12-13T22:13:57.005Z,100.00
2018-12-13T22:16:24.449Z,99.22
2018-12-13T22:18:51.915Z,98.25
2018-12-13T22:21:19.364Z,99.28
2018-12-13T22:23:46.846Z,99.62
2018-12-13T22:26:14.366Z,100.00
2018-12-13T22:28:41.822Z,100.00
2018-12-13T22:31:09.271Z,100.00
2018-12-13T22:33:36.723Z,99.85
2018-12-13T22:36:04.171Z,98.65
2018-12-13T22:38:31.639Z,100.00
2018-12-13T22:40:59.091Z,98.86
2018-12-13T22:43:26.538Z,100.00
2018-12-13T22:45:54.022Z,100.00
2018-12-13T22:48:21.476Z,98.73
2018-12-13T22:50:48.940Z,100.00
2018-12-13T22:53:16.373Z,100.00
2018-12-13T22:55:43.855Z,100.00
2018-12-13T22:58:11.301Z,100.00
2018-12-13T23:00:38.902Z,98.95
2018-12-13T23:03:06.344Z,97.41
2018-12-13T23:05:33.885Z,98.65
2018-12-13T23:08:01.346Z,97.73
2018-12-13T23:10:28.816Z,98.68
2018-12-13T23:12:56.268Z,99.11
2018-12-13T23:15:23.731Z,100.00
2018-12-13T23:17:51.180Z,100.00
2018-12-13T23:20:19.081Z,100.00
2018-12-13T23:22:46.524Z,98.98
2018-12-13T23:25:13.988Z,98.51
2018-12-13T23:27:41.429Z,97.23
2018-12-13T23:30:09.473Z,96.34
2018-12-13T23:32:36.910Z,95.74
2018-12-13T23:35:04.746Z,95.70
2018-12-13T23:37:32.209Z,94.02
2018-12-13T23:39:59.641Z,94.27
2018-12-13T23:42:27.118Z,95.47
2018-12-13T23:44:54.845Z,95.08
2018-12-13T23:47:22.306Z,94.05
2018-12-13T23:49:49.746Z,92.05
2018-12-13T23:52:17.196Z,94.22
2018-12-13T23:54:44.641Z,93.00
2018-12-13T23:57:12.096Z,94.82
2018-12-13T23:59:39.543Z,98.03
